Latest Weather Observations for Cape Sorell

IDT60801

Issued at 2:35 pm EST Saturday 2 August 2014 (issued every 30 minutes, with the page automatically refreshed every 10 minutes)

About weather observations | Map of weather stations | Latest weather observations for TAS | Other Formats
Station Details ID: 097000 Name: CAPE SORELL Lat: -42.20 Lon: 145.17 Height: 19.3 m
Data from the previous 72 hours. | See also: Recent months at Cape Sorell
Date/Time
EST
Temp
°C
App
Temp
°C
Dew
Point
Rel
Hum
%
Delta-T
°C
Wind Press
QNH
hPa
Press
MSL
hPa
Rain
since 9 am
mm
Dir
 
Spd
km/h
Gust
km/h
Spd
kts
Gust
kts
02/02:30pm 9.2 2.1 6.6 84 1.2 SW 33 52 18 28 1026.0 - 1.2
02/02:27pm 9.7 3.3 6.8 82 1.4 SW 30 50 16 27 1026.1 - 1.2
02/02:00pm 10.0 4.3 6.5 79 1.6 WSW 26 37 14 20 1026.0 1026.0 1.2
02/01:30pm 9.8 1.6 6.7 81 1.5 WSW 39 48 21 26 1025.6 - 1.2
02/01:00pm 9.3 4.1 7.4 88 0.9 WSW 24 37 13 20 1025.7 1025.7 1.2
02/12:33pm 11.0 4.7 5.5 69 2.5 W 28 48 15 26 1025.5 - 0.0
02/12:30pm 10.9 5.0 5.7 70 2.4 W 26 33 14 18 1025.6 - 0.0
02/12:00pm 10.3 3.0 5.5 72 2.2 WSW 33 46 18 25 1025.5 1025.5 0.0
02/11:30am 11.0 2.8 4.9 66 2.8 WSW 37 48 20 26 1025.4 - 0.0
02/11:00am 11.0 2.2 5.5 69 2.5 SW 41 52 22 28 1025.4 1025.4 0.0
02/10:30am 10.4 1.6 5.6 72 2.2 SW 41 50 22 27 1025.0 - 0.0
02/10:00am 10.7 2.5 4.8 67 2.7 WSW 37 44 20 24 1024.6 1024.6 0.0
02/09:30am 10.3 0.9 4.2 66 2.7 WSW 43 48 23 26 1024.2 - 0.0
02/09:00am 10.1 1.0 3.8 65 2.8 WSW 41 48 22 26 1023.9 1023.9 10.6
02/08:30am 9.6 -0.3 4.8 72 2.1 WSW 46 54 25 29 1023.3 - 10.6
02/08:12am 9.3 -0.1 4.5 72 2.1 SW 43 46 23 25 1023.5 - 10.6
02/08:00am 9.1 1.0 5.3 77 1.7 WSW 37 52 20 28 1023.5 1023.5 10.6
02/07:30am 7.4 0.7 3.5 76 1.7 W 28 48 15 26 1023.5 - 10.6
02/07:22am 7.8 -1.0 3.7 75 1.8 W 39 48 21 26 1023.1 - 10.4
02/07:16am 8.9 1.4 4.3 73 2.0 SW 33 54 18 29 1022.9 - 10.4
02/07:06am 8.7 1.0 3.3 69 2.3 SW 33 41 18 22 1022.9 - 10.4
02/07:03am 8.6 -3.7 3.2 69 2.3 SW 57 78 31 42 1022.5 - 10.4
02/07:00am 8.7 -4.6 3.9 72 2.1 SW 63 78 34 42 1022.0 1022.0 10.4
02/06:46am 9.6 -0.9 3.8 67 2.5 WSW 48 69 26 37 1021.8 - 10.4
02/06:30am 9.4 -0.4 3.4 66 2.6 WSW 44 56 24 30 1021.8 - 10.4
02/06:00am 9.2 -2.4 4.0 70 2.3 SW 54 65 29 35 1021.3 1021.3 10.4
02/05:54am 9.6 -0.4 4.4 70 2.3 SW 46 65 25 35 1021.0 - 10.4
02/05:30am 8.9 0.8 3.5 69 2.3 SW 35 44 19 24 1021.5 - 10.4
02/05:00am 8.3 -1.4 4.1 75 1.8 SW 44 57 24 31 1021.4 1021.4 10.4
02/04:46am 8.1 -2.9 5.0 81 1.4 SW 52 56 28 30 1021.2 - 10.4
02/04:30am 7.2 1.3 3.8 79 1.5 SSW 24 33 13 18 1021.7 - 10.4
02/04:13am 6.8 -2.5 2.7 75 1.7 SW 41 46 22 25 1021.5 - 10.4
02/04:03am 8.5 -4.9 3.6 71 2.1 SW 63 74 34 40 1020.5 - 10.4
02/04:01am 8.9 -0.3 3.5 69 2.3 SW 41 65 22 35 1020.7 - 10.4
02/04:00am 9.0 0.1 3.0 66 2.6 SW 39 56 21 30 1020.9 1020.9 10.4
02/03:30am 8.5 0.8 3.4 70 2.2 SSW 33 41 18 22 1020.9 - 10.4
02/03:00am 8.0 0.9 3.3 72 2.0 SSW 30 48 16 26 1020.8 1020.8 10.4
02/02:30am 8.2 -1.6 3.1 70 2.2 SW 44 63 24 34 1020.4 - 10.4
02/02:27am 8.1 -1.6 2.8 69 2.2 SW 43 46 23 25 1020.5 - 10.4
02/02:09am 8.3 -4.8 2.8 68 2.3 SW 61 67 33 36 1019.7 - 10.4
02/02:06am 8.6 -0.2 3.4 70 2.2 SW 39 63 21 34 1020.1 - 10.4
02/02:00am 8.2 -1.7 2.7 68 2.3 SW 44 59 24 32 1020.1 1020.1 10.4
02/01:35am 7.4 -2.4 3.1 74 1.8 SW 44 63 24 34 1019.9 - 10.4
02/01:30am 8.1 -2.4 3.4 72 2.0 SSW 48 63 26 34 1019.6 - 10.4
02/01:00am 8.4 -1.0 2.6 67 2.4 SSW 41 52 22 28 1019.6 1019.6 10.4
02/12:30am 8.0 -2.3 2.9 70 2.2 SSW 46 56 25 30 1019.1 - 10.4
02/12:00am 8.3 -2.6 3.6 72 2.0 SSW 50 59 27 32 1018.6 1018.6 10.4
 
Date/Time
EST
Temp
°C
App
Temp
°C
Dew
Point
Rel
Hum
%
Delta-T
°C
Wind Press
QNH
hPa
Press
MSL
hPa
Rain
since 9 am
mm
Dir
 
Spd
km/h
Gust
km/h
Spd
kts
Gust
kts
01/11:53pm 8.1 1.4 3.9 75 1.8 SSW 28 50 15 27 1018.6 - 10.4
01/11:30pm 7.2 -2.5 2.9 74 1.8 SSW 43 54 23 29 1018.6 - 10.4
01/11:09pm 7.2 -3.9 4.5 83 1.2 SSW 52 70 28 38 1018.2 - 10.2
01/11:03pm 7.5 -4.2 5.5 87 0.9 SSW 56 67 30 36 1017.6 - 10.2
01/11:00pm 7.3 0.0 5.6 89 0.8 S 33 56 18 30 1018.0 1018.0 10.2
01/10:59pm 6.4 -0.1 4.6 88 0.8 S 28 56 15 30 1018.1 - 10.2
01/10:30pm 6.6 1.6 3.6 81 1.3 SSW 19 24 10 13 1017.8 - 10.2
01/10:21pm 6.5 1.2 2.8 77 1.5 SSE 20 28 11 15 1017.6 - 10.2
01/10:12pm 7.7 -1.0 6.0 89 0.8 S 41 48 22 26 1017.1 - 10.2
01/10:00pm 4.4 -1.8 1.9 84 1.0 E 24 32 13 17 1016.8 1016.8 10.2
01/09:32pm 4.9 -1.9 3.2 89 0.7 S 28 50 15 27 1016.5 - 10.0
01/09:30pm 4.8 -0.4 3.3 90 0.6 S 20 43 11 23 1016.9 - 9.8
01/09:00pm 3.9 0.2 2.4 90 0.6 SE 11 17 6 9 1016.2 1016.2 9.6
01/08:30pm 4.3 -0.5 2.7 89 0.6 SE 17 26 9 14 1015.4 - 9.6
01/08:00pm 4.8 0.0 2.5 85 0.9 SE 17 30 9 16 1014.9 1015.0 7.6
01/07:30pm 5.7 0.8 2.0 77 1.5 SE 17 41 9 22 1013.6 - 7.0
01/07:23pm 7.2 3.2 3.1 75 1.7 SSE 13 26 7 14 1013.3 - 7.0
01/07:22pm 7.8 -1.0 3.7 75 1.8 S 39 59 21 32 1013.0 - 7.0
01/07:07pm 7.5 -1.6 3.9 78 1.5 S 41 48 22 26 1012.3 - 7.0
01/07:00pm 6.9 -6.7 4.2 83 1.2 SSW 65 85 35 46 1011.9 1012.0 7.0
01/06:59pm 6.8 -7.2 4.3 84 1.1 SSW 67 85 36 46 1011.7 - 7.0
01/06:47pm 6.8 -7.6 5.1 89 0.7 SSW 70 82 38 44 1011.2 - 7.0
01/06:45pm 6.7 -3.1 5.2 90 0.7 S 46 69 25 37 1012.2 - 7.0
01/06:30pm 5.3 -1.6 2.7 83 1.1 SSE 28 39 15 21 1012.0 - 6.8
01/06:03pm 6.3 -1.6 4.3 87 0.9 SSW 35 56 19 30 1011.0 - 6.6
01/06:00pm 6.1 -1.8 4.1 87 0.9 SSW 35 48 19 26 1011.2 1011.3 6.4
01/05:42pm 7.0 -1.2 4.5 84 1.1 S 37 63 20 34 1010.5 - 6.0
01/05:30pm 6.2 -2.2 3.9 85 1.0 S 37 54 20 29 1009.9 - 6.0
01/05:16pm 6.4 -2.7 4.1 85 1.0 S 41 52 22 28 1009.9 - 6.0
01/05:05pm 6.6 -5.8 4.8 88 0.8 S 59 78 32 42 1009.2 - 6.0
01/05:00pm 6.4 -7.2 4.4 87 0.9 S 65 82 35 44 1008.8 1008.9 6.0
01/04:50pm 7.1 -6.8 4.8 85 1.0 S 67 85 36 46 1008.3 - 6.0
01/04:30pm 7.1 -8.8 3.3 77 1.6 SSW 76 89 41 48 1006.2 - 6.0
01/04:26pm 8.2 -8.4 3.5 72 2.0 SSW 80 89 43 48 1006.3 - 6.0
01/04:24pm 9.3 -2.9 2.9 64 2.7 SSW 56 80 30 43 1006.9 - 6.0
01/04:00pm 9.2 -0.3 4.0 70 2.3 S 43 57 23 31 1006.4 1006.5 6.0
01/03:36pm 9.0 -2.2 4.0 71 2.2 SSW 52 72 28 39 1005.4 - 6.0
01/03:30pm 8.5 -4.4 4.1 74 1.9 SSW 61 74 33 40 1005.2 - 6.0
01/03:20pm 9.1 -5.2 4.9 75 1.9 SSW 69 74 37 40 1004.5 - 6.0
01/03:18pm 9.3 -0.6 4.9 74 2.0 S 46 78 25 42 1004.5 - 6.0
01/03:00pm 8.3 0.0 6.1 86 1.0 S 39 59 21 32 1004.6 1004.7 6.0
01/02:30pm 8.7 -1.3 7.8 94 0.4 S 50 69 27 37 1003.1 - 6.0
01/02:22pm 7.7 -1.1 7.1 96 0.3 S 43 65 23 35 1003.5 - 6.0
01/02:16pm 6.3 -3.0 5.1 92 0.5 S 43 54 23 29 1003.2 - 6.0
01/02:13pm 7.2 -7.3 6.3 94 0.4 S 72 93 39 50 1002.8 - 5.4
01/02:12pm 8.3 -7.1 7.5 95 0.4 S 78 93 42 50 1002.2 - 5.2
01/02:10pm 9.2 -0.6 8.7 97 0.2 S 50 87 27 47 1002.5 - 5.2
01/02:00pm 8.6 0.9 8.5 99 0.0 S 39 61 21 33 1002.2 1002.2 5.2
01/01:55pm 7.2 -0.5 6.9 98 0.1 SSE 37 50 20 27 1002.3 - 5.2
01/01:30pm 8.0 -0.8 7.9 99 0.0 S 44 65 24 35 1001.2 - 5.2
01/01:23pm 8.7 1.4 8.6 99 0.0 S 37 57 20 31 1000.9 - 4.8
01/01:00pm 6.6 -0.3 6.5 99 0.0 SSE 32 59 17 32 1000.6 1000.6 4.8
01/12:58pm 6.4 0.2 6.3 99 0.0 SSE 28 46 15 25 1000.7 - 4.6
01/12:57pm 6.8 0.7 6.7 99 0.0 SSE 28 39 15 21 1000.7 - 4.6
01/12:40pm 5.9 -4.6 5.8 99 0.0 S 50 57 27 31 999.8 - 4.6
01/12:36pm 6.0 -0.6 5.9 99 0.0 SSE 30 56 16 30 1000.6 - 4.4
01/12:30pm 5.2 -1.6 5.1 99 0.0 SE 30 44 16 24 1000.3 - 4.0
01/12:23pm 5.8 -1.4 5.7 99 0.0 SE 33 52 18 28 999.8 - 3.8
01/12:18pm 7.2 -1.6 7.1 99 0.0 SSE 43 52 23 28 999.5 - 3.8
01/12:13pm 7.8 -3.0 7.7 99 0.0 S 54 72 29 39 998.6 - 3.8
01/12:09pm 6.7 -1.9 6.6 99 0.0 SSE 41 67 22 36 999.2 - 3.8
01/12:00pm 7.8 -4.7 7.7 99 0.0 S 63 85 34 46 998.3 998.3 3.8
01/11:38am 6.6 -6.9 6.5 99 0.0 S 67 89 36 48 997.6 - 3.8
01/11:33am 6.5 -5.9 6.4 99 0.0 S 61 78 33 42 997.7 - 3.8
01/11:30am 6.0 -10.5 5.9 99 0.0 SSW 82 100 44 54 997.1 - 3.6
01/11:00am 6.3 -9.4 6.2 99 0.0 SSW 78 102 42 55 995.8 995.8 2.4
01/10:59am 6.3 -9.0 6.2 99 0.0 SSW 76 102 41 55 995.6 - 2.4
01/10:30am 5.9 -9.0 4.5 91 0.6 SW 72 91 39 49 995.1 - 0.4
01/10:00am 7.3 -7.4 5.4 88 0.9 SW 72 85 39 46 994.6 994.6 0.2
01/09:30am 7.5 -6.6 5.5 87 0.9 SW 69 83 37 45 994.1 - 0.2
01/09:00am 7.2 -3.9 4.3 82 1.3 SW 52 78 28 42 993.8 993.8 17.0
01/08:49am 8.0 -3.5 4.2 77 1.7 SW 54 76 29 41 993.2 - 17.0
01/08:30am 8.3 -1.8 3.8 73 1.9 WSW 46 61 25 33 993.2 - 17.0
01/08:00am 8.7 -2.1 4.1 73 2.0 SW 50 59 27 32 992.7 992.7 17.0
01/07:30am 8.6 -1.4 4.2 74 1.9 WSW 46 59 25 32 992.3 - 17.0
01/07:00am 8.1 -2.0 3.6 73 2.0 SW 46 57 25 31 991.7 991.7 17.0
01/06:30am 8.6 -2.9 4.4 75 1.8 SW 54 63 29 34 990.4 - 17.0
01/06:10am 8.3 -0.7 4.5 77 1.7 WSW 41 61 22 33 990.0 - 17.0
01/06:00am 8.3 -1.7 4.5 77 1.7 WSW 46 57 25 31 990.0 990.0 17.0
01/05:30am 6.5 0.5 3.5 81 1.3 W 24 46 13 25 990.5 - 16.8
01/05:00am 8.5 -1.3 3.6 71 2.1 WSW 44 56 24 30 990.2 990.2 16.4
01/04:30am 8.2 0.1 3.3 71 2.1 WNW 35 46 19 25 989.9 - 16.4
01/04:00am 7.9 -0.1 3.6 74 1.9 WNW 35 46 19 25 989.6 989.6 16.4
01/03:30am 7.8 -1.4 3.5 74 1.8 WNW 41 54 22 29 989.5 - 16.4
01/03:00am 7.9 -1.7 3.2 72 2.0 WNW 43 57 23 31 989.5 989.5 16.4
01/02:30am 8.2 -1.5 3.9 74 1.9 NW 44 67 24 36 989.4 - 16.4
01/02:04am 8.7 -1.8 3.9 72 2.1 NW 48 76 26 41 989.2 - 16.4
01/02:00am 8.9 -1.2 3.7 70 2.3 NW 46 63 25 34 989.1 989.1 16.4
01/01:57am 9.0 -0.8 3.2 67 2.5 NW 44 61 24 33 989.2 - 16.4
01/01:38am 9.6 -1.2 1.8 58 3.3 W 48 69 26 37 988.3 - 16.2
01/01:30am 9.5 -1.3 1.9 59 3.2 W 48 63 26 34 988.1 - 16.2
01/01:19am 9.3 -1.1 1.9 60 3.1 W 46 65 25 35 988.0 - 16.2
01/01:00am 9.1 -1.2 2.7 64 2.8 W 46 65 25 35 987.9 987.9 16.2
01/12:32am 9.0 -1.2 3.2 67 2.5 W 46 70 25 38 987.8 - 16.2
01/12:30am 9.1 -1.0 3.9 70 2.3 W 46 65 25 35 988.0 - 16.2
01/12:06am 9.1 -2.2 3.3 67 2.5 W 52 76 28 41 987.9 - 16.2
01/12:00am 9.1 -2.7 2.9 65 2.7 W 54 72 29 39 987.7 987.7 16.2
 
Date/Time
EST
Temp
°C
App
Temp
°C
Dew
Point
Rel
Hum
%
Delta-T
°C
Wind Press
QNH
hPa
Press
MSL
hPa
Rain
since 9 am
mm
Dir
 
Spd
km/h
Gust
km/h
Spd
kts
Gust
kts
31/11:34pm 8.3 -3.9 2.5 67 2.4 W 56 74 30 40 987.3 - 16.2
31/11:30pm 8.1 -4.7 2.6 68 2.3 W 59 74 32 40 987.0 - 16.2
31/11:18pm 8.0 -0.6 4.4 78 1.6 W 39 59 21 32 987.6 - 16.2
31/11:05pm 7.4 -1.8 3.6 77 1.6 W 41 50 22 27 987.7 - 16.2
31/11:00pm 7.6 -5.4 3.3 74 1.9 W 61 89 33 48 986.8 986.8 16.2
31/10:30pm 7.2 -4.0 4.2 81 1.3 W 52 70 28 38 986.9 - 16.2
31/10:10pm 7.6 -4.8 4.6 81 1.3 WSW 59 80 32 43 986.3 - 16.2
31/10:00pm 7.0 -5.1 4.1 82 1.3 WSW 57 70 31 38 986.2 986.2 16.2
31/09:53pm 6.6 -10.0 3.4 80 1.3 WSW 80 98 43 53 985.7 - 16.2
31/09:50pm 7.1 -10.8 3.7 79 1.4 WSW 87 98 47 53 984.8 - 16.2
31/09:49pm 7.7 -3.8 4.5 80 1.4 W 54 98 29 53 984.6 - 16.2
31/09:30pm 7.7 -4.0 5.2 84 1.1 W 56 76 30 41 985.6 - 16.2
31/09:15pm 7.5 -4.7 5.6 88 0.9 WSW 59 80 32 43 985.4 - 16.2
31/09:05pm 6.4 -7.3 3.7 83 1.1 WSW 65 78 35 42 984.9 - 16.2
31/09:01pm 7.2 -10.5 2.7 73 1.9 W 85 107 46 58 984.4 - 15.8
31/09:00pm 8.0 -5.4 3.3 72 2.0 W 63 107 34 58 984.0 984.0 15.8
31/08:30pm 9.1 -3.9 3.5 68 2.4 WNW 61 89 33 48 984.8 - 15.8
31/08:00pm 9.0 -3.9 4.0 71 2.2 WNW 61 80 33 43 984.3 984.3 15.8
31/07:32pm 7.9 -3.5 5.0 82 1.3 WNW 54 72 29 39 983.9 - 15.8
31/07:30pm 7.9 -3.1 5.2 83 1.2 WNW 52 70 28 38 984.0 - 15.8
31/07:09pm 7.6 -4.5 4.4 80 1.4 W 57 83 31 45 983.7 - 15.6
31/07:07pm 7.6 -3.9 4.6 81 1.3 W 54 69 29 37 983.7 - 15.6
31/07:01pm 7.5 -8.2 4.1 79 1.5 W 76 95 41 51 982.9 - 15.6
31/07:00pm 7.6 -8.5 4.4 80 1.4 W 78 95 42 51 982.5 982.5 15.6
31/06:59pm 8.4 -2.1 5.7 83 1.2 W 50 91 27 49 983.2 - 15.6
31/06:50pm 7.9 -2.0 5.0 82 1.3 W 46 65 25 35 983.5 - 15.6
31/06:48pm 7.9 -1.6 5.0 82 1.3 W 44 61 24 33 983.6 - 15.6
31/06:45pm 7.5 -6.5 4.3 80 1.4 W 67 87 36 47 983.0 - 15.6
31/06:44pm 7.7 -6.6 4.5 80 1.4 W 69 87 37 47 982.7 - 15.6
31/06:40pm 8.3 -6.8 5.4 82 1.3 WNW 74 85 40 46 982.8 - 15.6
31/06:30pm 8.4 -2.5 5.5 82 1.3 W 52 70 28 38 983.3 - 15.4
31/06:00pm 8.9 -2.9 5.5 79 1.6 WNW 57 80 31 43 983.0 983.0 15.4
31/05:31pm 7.6 -5.6 4.7 82 1.3 WNW 63 83 34 45 981.9 - 15.4
31/05:30pm 7.7 -5.8 4.8 82 1.3 WNW 65 83 35 45 982.0 - 15.4
31/05:00pm 9.8 -2.2 4.6 70 2.4 NW 57 85 31 46 981.7 981.7 14.8
31/04:30pm 9.3 -2.5 5.7 78 1.6 NW 57 76 31 41 981.7 - 14.8
31/04:17pm 8.9 -2.6 6.2 83 1.2 NW 56 82 30 44 981.6 - 14.8
31/04:15pm 8.7 -2.5 6.0 83 1.2 NW 54 70 29 38 981.7 - 14.8
31/04:00pm 8.3 -7.4 6.1 86 1.0 WNW 78 104 42 56 981.4 981.4 14.8
31/03:56pm 8.0 -9.2 5.3 83 1.2 WNW 85 104 46 56 981.1 - 14.8
31/03:54pm 8.6 -8.9 5.9 83 1.2 WNW 87 104 47 56 980.6 - 14.6
31/03:52pm 9.3 -3.4 6.7 84 1.2 NW 63 102 34 55 981.1 - 14.6
31/03:30pm 9.2 -1.9 8.0 92 0.6 NW 56 83 30 45 981.2 - 14.6
31/03:24pm 8.6 -4.0 7.4 92 0.6 NW 63 83 34 45 980.9 - 14.6
31/03:22pm 8.7 -4.6 7.6 93 0.5 NW 67 83 36 45 980.6 - 14.6
31/03:07pm 8.4 -1.3 7.5 94 0.4 NNW 48 70 26 38 980.9 - 14.6
31/03:00pm 8.4 -1.7 7.6 95 0.4 NNW 50 65 27 35 981.1 981.1 14.4
31/02:44pm 8.8 0.0 8.0 95 0.4 NW 44 67 24 36 981.0 - 14.2
31/02:30pm 8.8 0.0 8.0 95 0.4 NNW 44 59 24 32 981.8 - 13.2
31/02:05pm 8.4 -0.5 7.6 95 0.4 N 44 65 24 35 981.5 - 12.4
31/02:00pm 8.6 0.0 8.0 96 0.3 N 43 52 23 28 981.7 981.7 12.2
31/01:30pm 7.9 0.7 7.6 98 0.1 N 35 43 19 23 982.8 - 12.2
31/01:00pm 6.6 0.8 6.3 98 0.1 NE 26 35 14 19 982.4 982.4 12.2
31/12:30pm 5.9 0.7 5.5 97 0.2 E 22 33 12 18 983.0 - 12.0
31/12:00pm 6.4 3.8 6.0 97 0.2 E 9 19 5 10 984.8 984.8 10.6
31/11:43am 7.7 2.9 7.4 98 0.1 S 22 28 12 15 983.6 - 10.4
31/11:30am 7.6 -1.2 7.3 98 0.1 SW 43 52 23 28 983.7 - 10.2
31/11:00am 7.4 -1.1 7.1 98 0.1 SSW 41 48 22 26 984.3 984.3 9.0
31/10:30am 7.5 -1.9 7.2 98 0.1 SSW 46 52 25 28 983.2 - 8.4
31/10:02am 8.7 2.6 8.3 97 0.2 SW 30 54 16 29 984.0 - 6.2
31/10:00am 8.6 3.2 8.0 96 0.3 WSW 26 37 14 20 984.2 984.2 6.0
31/09:30am 8.9 7.1 8.1 95 0.4 SSW 7 11 4 6 984.9 - 2.6
31/09:00am 8.7 7.1 7.9 95 0.4 NE 6 11 3 6 985.7 985.7 15.4
31/08:30am 8.8 5.5 7.9 94 0.4 N 15 20 8 11 986.3 - 13.6
31/08:00am 8.7 5.4 7.9 95 0.4 NNW 15 20 8 11 986.5 986.5 13.0
31/07:30am 8.8 6.3 8.0 95 0.4 WNW 11 19 6 10 987.5 - 12.0
31/07:00am 8.8 3.0 8.0 95 0.4 W 28 43 15 23 988.1 988.1 11.6
31/06:30am 9.0 4.1 8.4 96 0.3 WNW 24 32 13 17 989.3 - 10.6
31/06:00am 9.1 5.2 8.6 97 0.2 NW 19 28 10 15 988.9 988.9 10.2
31/05:30am 9.2 6.5 8.9 98 0.1 NW 13 22 7 12 989.6 - 10.2
31/05:00am 8.8 5.2 8.5 98 0.1 W 17 30 9 16 990.3 990.3 9.6
31/04:30am 9.0 4.9 8.7 98 0.1 W 20 30 11 16 990.3 - 8.8
31/04:00am 9.0 3.8 8.7 98 0.1 SW 26 35 14 19 990.7 990.7 8.6
31/03:30am 9.1 0.1 8.8 98 0.1 SW 46 57 25 31 990.7 - 8.6
31/03:00am 9.0 -2.0 8.4 96 0.3 SW 56 72 30 39 989.9 989.9 7.4
31/02:57am 9.1 -1.5 8.3 95 0.4 SW 54 72 29 39 989.9 - 7.2
31/02:43am 10.9 3.5 9.8 93 0.6 WSW 39 52 21 28 989.6 - 5.4
31/02:30am 11.6 3.6 10.5 93 0.6 WNW 43 57 23 31 990.0 - 4.4
31/02:00am 11.5 3.5 10.6 94 0.5 WNW 43 65 23 35 990.8 990.8 4.2
31/01:40am 11.4 3.8 10.5 94 0.5 WNW 41 59 22 32 991.5 - 4.2
31/01:30am 11.2 3.2 10.3 94 0.5 W 43 59 23 32 991.2 - 4.2
31/01:01am 11.1 0.3 10.0 93 0.6 WNW 57 76 31 41 991.1 - 3.6
31/01:00am 11.1 -0.1 10.0 93 0.6 WNW 59 76 32 41 991.1 991.1 3.6
31/12:49am 10.6 -2.3 9.0 90 0.8 WNW 67 87 36 47 991.4 - 3.0
31/12:48am 10.6 -3.3 9.0 90 0.8 WNW 72 87 39 47 991.2 - 3.0
31/12:40am 12.4 0.7 9.2 81 1.6 NNW 61 96 33 52 990.9 - 2.4
31/12:30am 14.0 3.5 11.0 82 1.6 NNW 57 78 31 42 990.4 - 2.0
31/12:17am 13.7 3.8 11.0 84 1.4 NW 54 74 29 40 990.8 - 2.0
31/12:00am 13.8 5.0 10.8 82 1.6 NW 48 63 26 34 991.3 991.3 2.0
 
Date/Time
EST
Temp
°C
App
Temp
°C
Dew
Point
Rel
Hum
%
Delta-T
°C
Wind Press
QNH
hPa
Press
MSL
hPa
Rain
since 9 am
mm
Dir
 
Spd
km/h
Gust
km/h
Spd
kts
Gust
kts
30/11:33pm 14.0 3.3 10.2 78 2.0 NNW 57 78 31 42 991.7 - 2.0
30/11:30pm 14.0 3.3 10.2 78 2.0 NNW 57 72 31 39 991.5 - 2.0
30/11:00pm 13.7 3.2 10.3 80 1.8 NNW 56 74 30 40 992.1 992.1 2.0
30/10:31pm 13.1 4.1 10.1 82 1.5 NW 48 69 26 37 992.9 - 2.0
30/10:30pm 13.1 3.7 10.1 82 1.5 NW 50 69 27 37 992.8 - 2.0
30/10:00pm 13.3 2.5 9.9 80 1.8 NW 57 82 31 44 993.3 993.3 2.0
30/09:53pm 13.2 1.6 9.6 79 1.8 NW 61 82 33 44 993.2 - 2.0
30/09:30pm 13.8 4.6 9.6 76 2.2 NW 48 65 26 35 993.3 - 2.0
30/09:00pm 13.7 4.0 9.2 74 2.3 NW 50 70 27 38 993.9 993.9 2.0
30/08:31pm 13.6 3.3 9.6 77 2.0 NW 54 76 29 41 993.8 - 2.0
30/08:30pm 13.7 3.8 9.7 77 2.1 NW 52 70 28 38 993.9 - 2.0
30/08:00pm 14.1 1.7 9.5 74 2.4 NNW 65 87 35 47 993.8 993.8 2.0
30/07:30pm 13.9 2.0 10.1 78 2.0 NW 63 85 34 46 994.2 - 2.0
30/07:00pm 13.6 2.4 11.1 85 1.3 NNW 61 85 33 46 993.7 993.7 2.0
30/06:30pm 13.2 3.3 11.1 87 1.1 NNW 54 83 29 45 993.7 - 1.8
30/06:16pm 13.1 4.3 10.8 86 1.2 NNW 48 69 26 37 994.2 - 1.8
30/06:00pm 13.7 5.5 10.3 80 1.8 NW 44 59 24 32 994.8 994.8 1.6
30/05:34pm 13.8 6.1 10.2 79 1.9 NW 41 61 22 33 995.3 - 1.6
30/05:30pm 13.9 5.9 10.3 79 1.9 NW 43 61 23 33 995.5 - 1.6
30/05:00pm 13.6 4.2 10.0 79 1.9 NW 50 70 27 38 995.6 995.6 1.6
30/04:30pm 13.6 2.8 9.8 78 2.0 WNW 57 82 31 44 995.9 - 1.6
30/04:00pm 13.2 1.5 10.7 85 1.3 WNW 63 91 34 49 995.3 995.3 1.6
30/03:56pm 13.1 2.5 10.8 86 1.2 NW 57 91 31 49 995.1 - 1.6
30/03:30pm 12.9 4.1 11.1 89 0.9 NW 48 69 26 37 995.2 - 1.4
30/03:00pm 12.9 4.2 11.3 90 0.9 NW 48 74 26 40 995.6 995.6 1.4

Other Formats:

Comma delimited format used in spreadsheet applications
http://www.bom.gov.au/fwo/IDT60801/IDT60801.94974.axf

JavaScript Object Notation format (JSON) in row-major order
http://www.bom.gov.au/fwo/IDT60801/IDT60801.94974.json